createdAt,value
2022-12-26T00:02:02.598Z,94.02
2022-12-26T00:04:50.780Z,93.94
2022-12-26T00:07:15.857Z,93.49
2022-12-26T00:09:42.320Z,93.37
2022-12-26T00:12:08.741Z,93.22
2022-12-26T00:14:35.284Z,92.72
2022-12-26T00:17:01.715Z,92.29
2022-12-26T00:19:28.118Z,92.38
2022-12-26T00:21:54.598Z,91.84
2022-12-26T00:24:21.077Z,91.55
2022-12-26T00:26:47.485Z,91.11
2022-12-26T00:29:13.857Z,91.14
2022-12-26T00:31:40.345Z,91.16
2022-12-26T00:34:06.854Z,90.97
2022-12-26T00:36:33.839Z,90.82
2022-12-26T00:39:02.596Z,90.73
2022-12-26T00:41:31.067Z,90.76
2022-12-26T00:43:57.586Z,90.49
2022-12-26T00:46:24.477Z,90.62
2022-12-26T00:48:50.947Z,90.43
2022-12-26T00:51:17.949Z,90.30
2022-12-26T00:53:44.642Z,90.36
2022-12-26T00:56:11.446Z,90.41
2022-12-26T00:58:38.408Z,90.23
2022-12-26T01:01:24.120Z,90.40
2022-12-26T01:03:50.964Z,90.33
2022-12-26T01:06:17.910Z,90.62
2022-12-26T01:08:44.534Z,90.40
2022-12-26T01:11:13.978Z,90.27
2022-12-26T01:13:41.316Z,90.56
2022-12-26T01:16:08.259Z,90.83
2022-12-26T01:18:35.243Z,90.73
2022-12-26T01:21:06.686Z,90.91
2022-12-26T01:23:33.156Z,90.60
2022-12-26T01:26:16.830Z,90.31
2022-12-26T01:28:47.465Z,90.70
2022-12-26T01:31:13.971Z,90.33
2022-12-26T01:33:40.451Z,90.19
2022-12-26T01:36:06.975Z,89.86
2022-12-26T01:38:33.529Z,89.49
2022-12-26T01:41:20.378Z,89.55
2022-12-26T01:43:53.987Z,89.44
2022-12-26T01:46:25.898Z,89.48
2022-12-26T01:48:53.880Z,89.52
2022-12-26T01:51:25.001Z,89.14
2022-12-26T01:53:56.009Z,89.09
2022-12-26T01:56:45.502Z,89.22
2022-12-26T01:59:18.475Z,89.02
2022-12-26T02:01:47.571Z,88.94
2022-12-26T02:04:37.264Z,89.13
2022-12-26T02:07:05.071Z,89.09
2022-12-26T02:09:32.297Z,89.06
2022-12-26T02:12:36.387Z,89.06
2022-12-26T02:14:51.605Z,88.93
2022-12-26T02:17:18.534Z,89.00
2022-12-26T02:19:59.254Z,88.77
2022-12-26T02:22:58.392Z,88.55
2022-12-26T02:25:40.110Z,88.45
2022-12-26T02:28:18.737Z,88.50
2022-12-26T02:31:08.010Z,88.07
2022-12-26T02:34:06.002Z,88.06
2022-12-26T02:37:01.660Z,87.87
2022-12-26T02:39:53.275Z,87.81
2022-12-26T02:42:35.198Z,87.61
2022-12-26T02:45:44.753Z,87.42
2022-12-26T02:48:33.219Z,87.16
2022-12-26T02:51:44.900Z,87.17
2022-12-26T02:54:51.670Z,87.00
2022-12-26T02:57:49.754Z,86.76
2022-12-26T03:00:38.565Z,86.88
2022-12-26T03:03:32.771Z,86.55
2022-12-26T03:06:36.859Z,86.79
2022-12-26T03:09:29.850Z,86.82
2022-12-26T03:12:31.653Z,87.47
2022-12-26T03:15:02.818Z,88.51
2022-12-26T03:17:35.576Z,88.73
2022-12-26T03:20:09.396Z,88.96
2022-12-26T03:22:42.371Z,89.22
2022-12-26T03:25:31.565Z,89.42
2022-12-26T03:27:58.223Z,89.53
2022-12-26T03:30:43.927Z,89.41
2022-12-26T03:33:30.329Z,89.09
2022-12-26T03:35:58.411Z,89.69
2022-12-26T03:38:34.515Z,89.69
2022-12-26T03:41:27.627Z,90.17
2022-12-26T03:44:35.668Z,90.70
2022-12-26T03:47:59.056Z,91.15
2022-12-26T03:50:56.117Z,91.40
2022-12-26T03:54:01.531Z,91.36
2022-12-26T03:56:54.500Z,91.56
2022-12-26T03:59:49.225Z,91.57
2022-12-26T04:02:36.268Z,91.44
2022-12-26T04:05:25.005Z,91.89
2022-12-26T04:08:18.858Z,91.85
2022-12-26T04:11:09.926Z,92.45
2022-12-26T04:14:01.547Z,92.67
2022-12-26T04:16:54.330Z,93.04
2022-12-26T04:19:44.318Z,93.21
2022-12-26T04:23:13.072Z,93.53
2022-12-26T04:26:08.436Z,94.17
2022-12-26T04:28:53.390Z,94.71
2022-12-26T04:31:50.032Z,94.83
2022-12-26T04:34:44.911Z,95.04
2022-12-26T04:37:39.312Z,95.31
2022-12-26T04:40:29.130Z,96.12
2022-12-26T04:43:46.932Z,96.27
2022-12-26T04:46:02.353Z,96.62
2022-12-26T04:48:47.466Z,96.70
2022-12-26T04:51:13.934Z,97.16
2022-12-26T04:53:40.479Z,97.50
2022-12-26T04:56:07.214Z,97.70
2022-12-26T04:58:33.628Z,97.95
2022-12-26T05:01:20.064Z,97.92
2022-12-26T05:04:05.258Z,98.15
2022-12-26T05:07:10.098Z,98.31
2022-12-26T05:09:36.667Z,98.72
2022-12-26T05:12:08.924Z,99.22
2022-12-26T05:14:36.060Z,99.62
2022-12-26T05:17:22.355Z,99.87
2022-12-26T05:20:07.225Z,100.00
2022-12-26T05:22:55.508Z,100.00
2022-12-26T05:25:45.019Z,100.00
2022-12-26T05:28:31.242Z,100.00
2022-12-26T05:30:58.319Z,100.00
2022-12-26T05:33:43.291Z,100.00
2022-12-26T05:36:10.780Z,100.00
2022-12-26T05:38:37.341Z,100.00
2022-12-26T05:41:04.027Z,100.00
2022-12-26T05:43:30.563Z,100.00
2022-12-26T05:45:56.990Z,100.00
2022-12-26T05:48:23.576Z,100.00
2022-12-26T05:50:50.094Z,100.00
2022-12-26T05:53:16.532Z,100.00
2022-12-26T05:55:43.080Z,100.00
2022-12-26T05:58:09.463Z,100.00
2022-12-26T06:00:35.963Z,100.00
2022-12-26T06:03:02.588Z,100.00
2022-12-26T06:05:29.352Z,100.00
2022-12-26T06:07:55.832Z,100.00
2022-12-26T06:10:22.178Z,100.00
2022-12-26T06:12:48.643Z,100.00
2022-12-26T06:15:15.110Z,100.00
2022-12-26T06:17:41.633Z,100.00
2022-12-26T06:20:08.520Z,100.00
2022-12-26T06:22:35.073Z,100.00
2022-12-26T06:25:01.483Z,100.00
2022-12-26T06:27:28.435Z,100.00
2022-12-26T06:29:54.893Z,100.00
2022-12-26T06:32:21.333Z,100.00
2022-12-26T06:34:48.497Z,100.00
2022-12-26T06:37:14.823Z,100.00
2022-12-26T06:39:41.186Z,100.00
2022-12-26T06:42:07.574Z,100.00
2022-12-26T06:44:34.019Z,100.00
2022-12-26T06:47:00.573Z,100.00
2022-12-26T06:49:32.572Z,100.00
2022-12-26T06:51:59.811Z,100.00
2022-12-26T06:54:26.223Z,100.00
2022-12-26T06:56:52.616Z,100.00
2022-12-26T06:59:19.083Z,100.00
2022-12-26T07:01:45.757Z,100.00
2022-12-26T07:04:13.418Z,100.00
2022-12-26T07:06:40.059Z,100.00
2022-12-26T07:09:14.430Z,100.00
2022-12-26T07:11:44.211Z,100.00
2022-12-26T07:14:10.996Z,100.00
2022-12-26T07:16:39.266Z,100.00
2022-12-26T07:19:06.376Z,100.00
2022-12-26T07:21:39.702Z,100.00
2022-12-26T07:24:07.207Z,100.00
2022-12-26T07:26:33.768Z,100.00
2022-12-26T07:29:00.348Z,100.00
2022-12-26T07:31:30.408Z,100.00
2022-12-26T07:33:57.077Z,100.00
2022-12-26T07:36:25.132Z,100.00
2022-12-26T07:38:51.734Z,100.00
2022-12-26T07:41:37.091Z,100.00
2022-12-26T07:44:03.785Z,100.00
2022-12-26T07:46:30.802Z,100.00
2022-12-26T07:48:57.759Z,100.00
2022-12-26T07:51:24.553Z,100.00
2022-12-26T07:53:51.180Z,100.00
2022-12-26T07:56:17.649Z,100.00
2022-12-26T07:58:44.146Z,100.00
2022-12-26T08:01:10.725Z,100.00
2022-12-26T08:03:37.937Z,100.00
2022-12-26T08:06:04.485Z,100.00
2022-12-26T08:08:30.959Z,100.00
2022-12-26T08:11:06.464Z,100.00
2022-12-26T08:13:33.310Z,100.00
2022-12-26T08:16:00.819Z,100.00
2022-12-26T08:18:27.291Z,100.00
2022-12-26T08:20:53.861Z,100.00
2022-12-26T08:23:20.263Z,100.00
2022-12-26T08:25:46.673Z,100.00
2022-12-26T08:28:13.084Z,100.00
2022-12-26T08:30:41.217Z,100.00
2022-12-26T08:33:10.479Z,100.00
2022-12-26T08:35:38.728Z,100.00
2022-12-26T08:38:05.360Z,100.00
2022-12-26T08:40:42.950Z,100.00
2022-12-26T08:46:01.087Z,100.00
2022-12-26T08:48:28.379Z,100.00
2022-12-26T08:51:01.621Z,100.00
2022-12-26T08:53:29.624Z,100.00
2022-12-26T08:55:56.654Z,100.00
2022-12-26T08:58:23.111Z,100.00
2022-12-26T09:00:55.055Z,100.00
2022-12-26T09:03:22.069Z,100.00
2022-12-26T09:05:48.842Z,100.00
2022-12-26T09:08:15.421Z,100.00
2022-12-26T09:10:41.921Z,100.00
2022-12-26T09:13:08.417Z,100.00
2022-12-26T09:15:34.949Z,100.00
2022-12-26T09:18:01.543Z,100.00
2022-12-26T09:20:28.179Z,100.00
2022-12-26T09:22:55.431Z,100.00
2022-12-26T09:25:24.740Z,100.00
2022-12-26T09:27:58.873Z,100.00
2022-12-26T09:30:26.430Z,100.00
2022-12-26T09:32:54.030Z,100.00
2022-12-26T09:35:20.844Z,100.00
2022-12-26T09:37:47.213Z,100.00
2022-12-26T09:40:28.417Z,100.00
2022-12-26T09:43:23.509Z,100.00
2022-12-26T09:46:06.087Z,100.00
2022-12-26T09:48:59.999Z,100.00
2022-12-26T09:51:31.045Z,100.00
2022-12-26T09:53:59.687Z,100.00
2022-12-26T09:59:18.797Z,100.00
2022-12-26T10:01:48.864Z,100.00
2022-12-26T10:04:30.368Z,100.00
2022-12-26T10:07:23.494Z,100.00
2022-12-26T10:10:01.237Z,100.00
2022-12-26T10:12:37.675Z,100.00
2022-12-26T10:15:32.006Z,100.00
2022-12-26T10:18:10.765Z,99.47
2022-12-26T10:20:56.507Z,98.39
2022-12-26T10:23:30.156Z,97.79
2022-12-26T10:26:04.263Z,97.32
2022-12-26T10:28:52.047Z,97.49
2022-12-26T10:31:42.531Z,97.14
2022-12-26T10:34:21.236Z,97.28
2022-12-26T10:36:57.375Z,96.41
2022-12-26T10:39:52.941Z,95.72
2022-12-26T10:42:41.557Z,95.59
2022-12-26T10:45:16.436Z,95.06
2022-12-26T10:47:46.916Z,94.71
2022-12-26T10:50:23.822Z,94.12
2022-12-26T10:52:54.090Z,93.50
2022-12-26T10:55:28.492Z,93.24
2022-12-26T10:58:01.604Z,92.99
2022-12-26T11:00:28.847Z,92.69
2022-12-26T11:03:02.490Z,92.56
2022-12-26T11:08:21.782Z,92.66
2022-12-26T11:11:06.775Z,92.44
2022-12-26T11:13:39.214Z,91.65
2022-12-26T11:16:06.943Z,91.77
2022-12-26T11:18:46.473Z,91.51
2022-12-26T11:21:18.933Z,90.51
2022-12-26T11:23:47.101Z,89.73
2022-12-26T11:26:25.979Z,89.45
2022-12-26T11:29:12.998Z,89.04
2022-12-26T11:31:41.519Z,88.49
2022-12-26T11:34:10.869Z,88.43
2022-12-26T11:36:44.704Z,88.48
2022-12-26T11:39:25.844Z,87.74
2022-12-26T11:41:53.262Z,87.58
2022-12-26T11:44:24.932Z,87.40
2022-12-26T11:47:17.358Z,86.57
2022-12-26T11:50:21.575Z,86.27
2022-12-26T11:52:57.116Z,86.13
2022-12-26T11:55:29.396Z,85.74
2022-12-26T11:58:07.991Z,85.48
2022-12-26T12:00:35.906Z,85.26
2022-12-26T12:03:09.217Z,84.96
2022-12-26T12:05:47.023Z,84.83
2022-12-26T12:08:27.864Z,84.34
2022-12-26T12:11:09.426Z,84.33
2022-12-26T12:13:52.418Z,84.22
2022-12-26T12:16:35.635Z,84.13
2022-12-26T12:19:16.454Z,83.79
2022-12-26T12:22:12.014Z,83.90
2022-12-26T12:24:51.495Z,84.04
2022-12-26T12:27:36.821Z,84.05
2022-12-26T12:30:12.216Z,84.11
2022-12-26T12:33:28.479Z,84.29
2022-12-26T12:36:00.373Z,84.01
2022-12-26T12:38:33.226Z,83.88
2022-12-26T12:41:41.294Z,83.63
2022-12-26T12:44:20.839Z,83.89
2022-12-26T12:47:03.809Z,84.05
2022-12-26T12:49:42.280Z,84.36
2022-12-26T12:52:31.591Z,84.23
2022-12-26T12:55:17.739Z,84.25
2022-12-26T12:58:13.056Z,84.69
2022-12-26T13:00:45.216Z,84.41
2022-12-26T13:03:25.626Z,84.40
2022-12-26T13:06:05.113Z,84.70
2022-12-26T13:08:59.915Z,84.55
2022-12-26T13:11:32.363Z,84.88
2022-12-26T13:14:19.154Z,85.11
2022-12-26T13:16:53.365Z,85.80
2022-12-26T13:19:25.254Z,85.81
2022-12-26T13:21:55.870Z,86.07
2022-12-26T13:24:46.354Z,86.17
2022-12-26T13:27:24.223Z,85.94
2022-12-26T13:29:50.704Z,86.41
2022-12-26T13:32:35.261Z,86.20
2022-12-26T13:35:04.273Z,86.48
2022-12-26T13:37:55.523Z,86.81
2022-12-26T13:40:26.933Z,88.02
2022-12-26T13:43:34.165Z,89.72
2022-12-26T13:46:01.912Z,91.43
2022-12-26T13:48:30.309Z,92.79
2022-12-26T13:51:02.080Z,93.43
2022-12-26T13:53:40.168Z,94.17
2022-12-26T13:56:36.243Z,94.96
2022-12-26T13:59:13.612Z,95.46
2022-12-26T14:02:19.191Z,96.11
2022-12-26T14:05:12.334Z,96.60
2022-12-26T14:07:58.238Z,96.77
2022-12-26T14:11:05.568Z,96.92
2022-12-26T14:13:53.822Z,97.13
2022-12-26T14:16:24.547Z,97.25
2022-12-26T14:19:03.211Z,97.15
2022-12-26T14:21:43.348Z,97.38
2022-12-26T14:24:12.846Z,98.04
2022-12-26T14:27:18.350Z,98.30
2022-12-26T14:29:51.857Z,97.76
2022-12-26T14:32:37.076Z,97.35
2022-12-26T14:35:22.063Z,96.80
2022-12-26T14:38:04.421Z,95.39
2022-12-26T14:40:35.417Z,95.41
2022-12-26T14:43:16.975Z,95.14
2022-12-26T14:45:50.801Z,95.05
2022-12-26T14:48:17.257Z,94.40
2022-12-26T14:50:45.598Z,94.00
2022-12-26T14:53:24.304Z,94.01
2022-12-26T14:56:07.940Z,93.74
2022-12-26T14:58:50.622Z,93.24
2022-12-26T15:01:17.871Z,92.63
2022-12-26T15:03:54.471Z,92.06
2022-12-26T15:06:20.997Z,91.56
2022-12-26T15:09:25.309Z,91.00
2022-12-26T15:12:13.651Z,90.82
2022-12-26T15:14:56.709Z,90.20
2022-12-26T15:17:43.941Z,90.08
2022-12-26T15:20:40.546Z,89.97
2022-12-26T15:23:43.210Z,90.46
2022-12-26T15:26:40.483Z,90.83
2022-12-26T15:29:37.246Z,90.34
2022-12-26T15:32:27.617Z,89.83
2022-12-26T15:34:56.935Z,89.51
2022-12-26T15:37:32.487Z,89.79
2022-12-26T15:40:21.701Z,89.92
2022-12-26T15:42:54.106Z,89.21
2022-12-26T15:45:48.614Z,87.68
2022-12-26T15:48:29.805Z,87.17
2022-12-26T15:51:04.161Z,87.01
2022-12-26T15:53:57.179Z,86.01
2022-12-26T15:56:35.615Z,86.34
2022-12-26T15:59:23.824Z,86.07
2022-12-26T16:01:53.396Z,85.47
2022-12-26T16:04:34.763Z,85.74
2022-12-26T16:07:39.714Z,85.45
2022-12-26T16:10:35.180Z,85.47
2022-12-26T16:13:14.737Z,85.28
2022-12-26T16:15:47.298Z,85.64
2022-12-26T16:18:16.506Z,85.76
2022-12-26T16:21:04.252Z,85.67
2022-12-26T16:23:32.871Z,86.08
2022-12-26T16:26:00.581Z,86.22
2022-12-26T16:28:36.591Z,86.55
2022-12-26T16:31:04.174Z,86.38
2022-12-26T16:33:34.814Z,85.93
2022-12-26T16:36:01.516Z,85.40
2022-12-26T16:38:31.468Z,84.82
2022-12-26T16:41:00.430Z,84.61
2022-12-26T16:43:31.107Z,84.31
2022-12-26T16:46:03.601Z,84.55
2022-12-26T16:48:33.138Z,84.58
2022-12-26T16:51:03.286Z,84.85
2022-12-26T16:53:35.767Z,84.57
2022-12-26T16:56:24.532Z,84.72
2022-12-26T16:59:17.079Z,84.43
2022-12-26T17:02:02.706Z,84.01
2022-12-26T17:04:30.363Z,84.19
2022-12-26T17:07:00.708Z,83.87
2022-12-26T17:09:30.701Z,83.81
2022-12-26T17:12:07.830Z,84.10
2022-12-26T17:14:40.926Z,83.90
2022-12-26T17:17:25.966Z,83.04
2022-12-26T17:19:55.474Z,83.11
2022-12-26T17:22:33.173Z,82.76
2022-12-26T17:25:18.076Z,82.44
2022-12-26T17:27:45.244Z,82.62
2022-12-26T17:30:45.411Z,82.40
2022-12-26T17:33:16.721Z,82.36
2022-12-26T17:36:44.981Z,81.94
2022-12-26T17:38:35.566Z,82.14
2022-12-26T17:41:04.357Z,82.13
2022-12-26T17:43:34.582Z,81.60
2022-12-26T17:46:01.629Z,81.78
2022-12-26T17:48:28.758Z,81.00
2022-12-26T17:50:59.061Z,80.27
2022-12-26T17:53:30.217Z,80.71
2022-12-26T17:55:58.667Z,80.74
2022-12-26T17:58:25.425Z,80.41
2022-12-26T18:00:52.382Z,79.87
2022-12-26T18:03:19.067Z,79.17
2022-12-26T18:05:47.581Z,79.09
2022-12-26T18:08:33.272Z,78.55
2022-12-26T18:11:01.033Z,78.34
2022-12-26T18:13:27.782Z,78.00
2022-12-26T18:15:55.963Z,77.90
2022-12-26T18:18:37.642Z,78.32
2022-12-26T18:21:06.006Z,78.06
2022-12-26T18:23:32.611Z,77.42
2022-12-26T18:26:06.276Z,77.65
2022-12-26T18:28:33.142Z,77.42
2022-12-26T18:30:59.553Z,77.38
2022-12-26T18:33:26.010Z,77.41
2022-12-26T18:35:52.621Z,77.17
2022-12-26T18:38:20.602Z,77.43
2022-12-26T18:40:49.697Z,77.54
2022-12-26T18:43:16.616Z,77.25
2022-12-26T18:45:43.334Z,77.27
2022-12-26T18:48:15.025Z,76.84
2022-12-26T18:50:42.903Z,77.73
2022-12-26T18:53:10.581Z,77.34
2022-12-26T18:55:37.180Z,77.26
2022-12-26T18:58:03.706Z,77.68
2022-12-26T19:00:30.474Z,77.08
2022-12-26T19:02:57.057Z,77.82
2022-12-26T19:05:27.425Z,78.04
2022-12-26T19:07:54.870Z,78.21
2022-12-26T19:10:25.072Z,78.41
2022-12-26T19:12:51.548Z,78.80
2022-12-26T19:15:18.242Z,79.08
2022-12-26T19:17:45.124Z,79.11
2022-12-26T19:20:25.899Z,78.65
2022-12-26T19:22:53.753Z,78.89
2022-12-26T19:25:21.861Z,78.71
2022-12-26T19:27:49.406Z,78.44
2022-12-26T19:30:17.066Z,78.45
2022-12-26T19:32:44.069Z,78.37
2022-12-26T19:35:11.891Z,77.83
2022-12-26T19:37:38.487Z,78.33
2022-12-26T19:40:06.451Z,78.21
2022-12-26T19:42:34.771Z,78.45
2022-12-26T19:45:01.626Z,78.43
2022-12-26T19:47:28.119Z,78.59
2022-12-26T19:49:54.684Z,78.25
2022-12-26T19:52:21.186Z,77.99
2022-12-26T19:54:47.841Z,78.54
2022-12-26T19:57:14.293Z,78.94
2022-12-26T19:59:43.718Z,78.79
2022-12-26T20:02:12.393Z,79.11
2022-12-26T20:04:38.999Z,79.16
2022-12-26T20:07:05.830Z,78.92
2022-12-26T20:09:32.455Z,79.13
2022-12-26T20:11:58.927Z,79.10
2022-12-26T20:14:27.249Z,79.23
2022-12-26T20:17:08.029Z,79.34
2022-12-26T20:19:35.449Z,79.27
2022-12-26T20:22:01.937Z,79.86
2022-12-26T20:24:28.390Z,80.06
2022-12-26T20:26:54.805Z,79.64
2022-12-26T20:29:21.577Z,79.70
2022-12-26T20:31:48.409Z,79.93
2022-12-26T20:34:14.955Z,79.55
2022-12-26T20:36:41.912Z,79.44
2022-12-26T20:39:16.654Z,79.43
2022-12-26T20:41:43.270Z,79.53
2022-12-26T20:44:12.466Z,79.84
2022-12-26T20:46:40.333Z,79.80
2022-12-26T20:49:06.693Z,80.13
2022-12-26T20:51:37.870Z,79.89
2022-12-26T20:54:06.113Z,80.40
2022-12-26T20:56:32.652Z,80.32
2022-12-26T20:58:59.775Z,79.81
2022-12-26T21:01:27.708Z,80.17
2022-12-26T21:03:55.874Z,80.16
2022-12-26T21:06:28.939Z,80.01
2022-12-26T21:08:56.500Z,79.84
2022-12-26T21:11:28.926Z,79.62
2022-12-26T21:13:57.739Z,79.76
2022-12-26T21:16:29.050Z,79.61
2022-12-26T21:18:57.331Z,79.45
2022-12-26T21:21:27.963Z,79.73
2022-12-26T21:23:57.256Z,80.00
2022-12-26T21:26:24.664Z,80.14
2022-12-26T21:28:59.723Z,80.75
2022-12-26T21:31:27.447Z,80.78
2022-12-26T21:33:59.251Z,80.88
2022-12-26T21:36:27.324Z,81.09
2022-12-26T21:38:53.925Z,81.44
2022-12-26T21:41:21.090Z,81.39
2022-12-26T21:43:47.659Z,81.69
2022-12-26T21:46:17.365Z,81.34
2022-12-26T21:48:47.150Z,81.70
2022-12-26T21:51:15.376Z,81.71
2022-12-26T21:53:42.895Z,81.43
2022-12-26T21:56:11.075Z,81.70
2022-12-26T21:58:57.211Z,81.74
2022-12-26T22:01:25.877Z,81.89
2022-12-26T22:04:11.009Z,81.70
2022-12-26T22:06:38.839Z,81.54
2022-12-26T22:09:06.205Z,81.66
2022-12-26T22:11:51.193Z,81.74
2022-12-26T22:14:17.651Z,81.67
2022-12-26T22:16:44.391Z,82.23
2022-12-26T22:19:11.129Z,82.20
2022-12-26T22:21:37.657Z,82.20
2022-12-26T22:24:04.228Z,82.44
2022-12-26T22:26:30.759Z,82.29
2022-12-26T22:28:57.946Z,82.01
2022-12-26T22:31:31.753Z,82.40
2022-12-26T22:34:03.930Z,82.31
2022-12-26T22:36:31.665Z,82.79
2022-12-26T22:38:59.125Z,82.91
2022-12-26T22:41:26.208Z,83.00
2022-12-26T22:43:52.885Z,83.12
2022-12-26T22:46:19.428Z,83.08
2022-12-26T22:48:45.969Z,82.83
2022-12-26T22:51:21.324Z,83.06
2022-12-26T22:53:47.930Z,82.97
2022-12-26T22:56:14.656Z,82.68
2022-12-26T22:58:41.411Z,82.89
2022-12-26T23:01:16.447Z,82.76
2022-12-26T23:03:43.350Z,82.50
2022-12-26T23:06:36.526Z,82.74
2022-12-26T23:09:05.573Z,82.51
2022-12-26T23:11:35.479Z,82.57
2022-12-26T23:14:04.738Z,82.61
2022-12-26T23:16:34.407Z,82.95
2022-12-26T23:19:24.204Z,82.60
2022-12-26T23:21:50.800Z,82.63
2022-12-26T23:24:21.942Z,82.50
2022-12-26T23:26:53.848Z,82.71
2022-12-26T23:29:40.901Z,82.87
2022-12-26T23:32:08.866Z,83.36
2022-12-26T23:34:35.955Z,83.96
2022-12-26T23:37:03.104Z,84.17
2022-12-26T23:39:29.670Z,84.20
2022-12-26T23:41:56.199Z,84.68
2022-12-26T23:44:22.683Z,84.60
2022-12-26T23:46:49.247Z,85.06
2022-12-26T23:49:16.073Z,84.96
2022-12-26T23:51:43.073Z,84.91
2022-12-26T23:54:10.043Z,85.11
2022-12-26T23:56:37.164Z,85.17
2022-12-26T23:59:04.648Z,85.51
